createdAt,value
2022-07-31T00:00:31.243Z,99.91
2022-07-31T00:01:30.218Z,99.60
2022-07-31T00:02:30.208Z,99.80
2022-07-31T00:03:30.297Z,99.60
2022-07-31T00:04:30.201Z,99.70
2022-07-31T00:05:30.199Z,99.80
2022-07-31T00:06:31.070Z,99.60
2022-07-31T00:07:30.174Z,99.60
2022-07-31T00:08:30.186Z,99.86
2022-07-31T00:09:52.968Z,99.99
2022-07-31T00:10:31.201Z,99.91
2022-07-31T00:11:30.158Z,99.99
2022-07-31T00:12:30.134Z,99.99
2022-07-31T00:13:57.120Z,99.91
2022-07-31T00:14:31.117Z,99.86
2022-07-31T00:15:30.135Z,99.99
2022-07-31T00:16:30.130Z,99.91
2022-07-31T00:17:30.102Z,99.99
2022-07-31T00:18:30.084Z,99.99
2022-07-31T00:19:30.102Z,99.99
2022-07-31T00:20:30.138Z,99.99
2022-07-31T00:21:30.070Z,99.99
2022-07-31T00:22:30.188Z,99.99
2022-07-31T00:23:30.049Z,99.99
2022-07-31T00:24:30.261Z,99.99
2022-07-31T00:25:30.054Z,99.99
2022-07-31T00:26:30.043Z,99.99
2022-07-31T00:27:30.012Z,99.99
2022-07-31T00:28:30.020Z,99.99
2022-07-31T00:29:29.999Z,99.99
2022-07-31T00:30:30.038Z,99.99
2022-07-31T00:31:30.008Z,99.86
2022-07-31T00:32:29.991Z,99.76
2022-07-31T00:33:29.986Z,99.76
2022-07-31T00:34:29.995Z,99.66
2022-07-31T00:35:29.960Z,99.46
2022-07-31T00:36:30.398Z,99.76
2022-07-31T00:37:29.945Z,99.66
2022-07-31T00:38:29.962Z,99.76
2022-07-31T00:39:29.953Z,99.55
2022-07-31T00:40:29.931Z,99.76
2022-07-31T00:41:29.930Z,99.66
2022-07-31T00:42:29.929Z,99.66
2022-07-31T00:43:30.806Z,99.86
2022-07-31T00:44:29.910Z,99.66
2022-07-31T00:45:31.760Z,99.55
2022-07-31T00:46:29.866Z,99.55
2022-07-31T00:47:29.923Z,99.76
2022-07-31T00:48:29.897Z,99.86
2022-07-31T00:49:37.795Z,99.35
2022-07-31T00:50:30.882Z,99.30
2022-07-31T00:51:29.834Z,99.50
2022-07-31T00:52:29.847Z,99.76
2022-07-31T00:53:29.823Z,99.60
2022-07-31T00:54:29.826Z,99.70
2022-07-31T00:55:29.850Z,99.35
2022-07-31T00:56:29.797Z,99.60
2022-07-31T00:57:29.867Z,99.55
2022-07-31T00:58:29.798Z,99.96
2022-07-31T00:59:29.809Z,99.91
2022-07-31T01:00:29.790Z,99.80
2022-07-31T01:01:29.953Z,99.70
2022-07-31T01:02:29.762Z,99.55
2022-07-31T01:03:29.755Z,99.60
2022-07-31T01:04:31.269Z,99.91
2022-07-31T01:05:29.748Z,99.50
2022-07-31T01:06:29.744Z,99.70
2022-07-31T01:07:29.715Z,99.60
2022-07-31T01:08:29.734Z,99.80
2022-07-31T01:09:29.713Z,99.66
2022-07-31T01:10:29.685Z,99.86
2022-07-31T01:11:29.677Z,99.66
2022-07-31T01:12:29.731Z,99.86
2022-07-31T01:13:29.681Z,99.86
2022-07-31T01:14:29.745Z,99.66
2022-07-31T01:15:29.654Z,99.66
2022-07-31T01:16:29.650Z,99.66
2022-07-31T01:17:29.666Z,99.86
2022-07-31T01:18:30.498Z,99.76
2022-07-31T01:19:39.744Z,99.66
2022-07-31T01:20:30.620Z,99.96
2022-07-31T01:21:29.616Z,99.96
2022-07-31T01:22:34.031Z,99.66
2022-07-31T01:23:30.603Z,99.46
2022-07-31T01:24:29.589Z,99.66
2022-07-31T01:25:29.597Z,99.46
2022-07-31T01:26:29.576Z,99.55
2022-07-31T01:27:29.616Z,99.66
2022-07-31T01:28:29.572Z,99.86
2022-07-31T01:29:29.689Z,99.66
2022-07-31T01:30:30.980Z,99.66
2022-07-31T01:31:30.545Z,99.66
2022-07-31T01:32:29.568Z,99.76
2022-07-31T01:33:29.577Z,99.86
2022-07-31T01:34:29.563Z,99.86
2022-07-31T01:35:29.508Z,99.66
2022-07-31T01:36:29.501Z,99.66
2022-07-31T01:37:30.514Z,99.66
2022-07-31T01:38:29.491Z,99.76
2022-07-31T01:39:33.736Z,99.66
2022-07-31T01:40:29.486Z,99.76
2022-07-31T01:41:29.486Z,99.76
2022-07-31T01:42:29.485Z,99.66
2022-07-31T01:43:29.464Z,99.55
2022-07-31T01:44:29.440Z,99.46
2022-07-31T02:02:33.778Z,99.81
2022-07-31T02:03:42.897Z,99.61
2022-07-31T02:04:34.827Z,99.81
2022-07-31T02:05:33.760Z,99.61
2022-07-31T02:06:34.860Z,99.55
2022-07-31T02:07:34.873Z,99.66
2022-07-31T02:08:34.865Z,99.81
2022-07-31T02:09:34.832Z,99.81
2022-07-31T02:10:34.847Z,99.71
2022-07-31T02:11:34.817Z,99.76
2022-07-31T02:12:35.904Z,99.51
2022-07-31T02:14:06.749Z,99.66
2022-07-31T02:14:34.796Z,99.81
2022-07-31T02:15:34.781Z,99.66
2022-07-31T02:16:34.802Z,99.71
2022-07-31T02:17:34.780Z,99.41
2022-07-31T02:18:34.801Z,99.46
2022-07-31T02:19:34.771Z,99.51
2022-07-31T02:20:34.764Z,99.51
2022-07-31T02:21:34.723Z,99.55
2022-07-31T02:22:34.751Z,99.71
2022-07-31T02:23:34.722Z,99.61
2022-07-31T02:24:34.720Z,99.91
2022-07-31T02:25:34.713Z,99.61
2022-07-31T02:26:34.674Z,99.71
2022-07-31T02:27:55.451Z,99.61
2022-07-31T02:28:35.673Z,99.61
2022-07-31T02:29:34.704Z,99.61
2022-07-31T02:30:38.942Z,99.51
2022-07-31T02:31:35.660Z,99.91
2022-07-31T02:32:34.650Z,99.61
2022-07-31T02:33:34.631Z,99.81
2022-07-31T02:34:34.640Z,99.81
2022-07-31T02:35:34.640Z,99.71
2022-07-31T02:36:34.609Z,99.51
2022-07-31T02:37:34.719Z,99.99
2022-07-31T02:38:34.592Z,99.91
2022-07-31T02:39:34.666Z,99.61
2022-07-31T02:40:34.568Z,99.91
2022-07-31T02:41:34.571Z,99.81
2022-07-31T02:42:34.564Z,99.99
2022-07-31T02:43:34.560Z,99.99
2022-07-31T02:44:34.610Z,99.99
2022-07-31T02:45:34.541Z,99.99
2022-07-31T02:46:34.539Z,99.99
2022-07-31T02:47:34.509Z,99.99
2022-07-31T02:48:35.508Z,99.99
2022-07-31T02:49:34.772Z,99.99
2022-07-31T02:50:34.505Z,99.99
2022-07-31T02:51:41.042Z,99.99
2022-07-31T02:52:35.633Z,99.99
2022-07-31T02:53:34.480Z,99.99
2022-07-31T02:54:34.471Z,99.99
2022-07-31T02:55:34.499Z,99.99
2022-07-31T02:56:34.453Z,99.99
2022-07-31T02:57:34.448Z,99.99
2022-07-31T02:58:34.439Z,99.81
2022-07-31T02:59:34.429Z,99.99
2022-07-31T03:00:34.479Z,99.99
2022-07-31T03:01:34.418Z,99.99
2022-07-31T03:02:36.964Z,99.99
2022-07-31T03:03:35.474Z,99.99
2022-07-31T03:04:34.383Z,99.99
2022-07-31T03:05:34.412Z,99.86
2022-07-31T03:06:34.396Z,99.96
2022-07-31T03:07:34.362Z,99.99
2022-07-31T03:08:34.356Z,99.99
2022-07-31T03:09:34.358Z,99.99
2022-07-31T03:10:34.358Z,99.86
2022-07-31T03:11:34.337Z,99.76
2022-07-31T03:12:34.325Z,99.99
2022-07-31T03:13:34.322Z,99.99
2022-07-31T03:14:34.322Z,99.80
2022-07-31T03:15:34.326Z,99.70
2022-07-31T03:16:34.312Z,99.70
2022-07-31T03:17:40.782Z,99.80
2022-07-31T03:18:35.286Z,99.85
2022-07-31T03:19:34.281Z,99.99
2022-07-31T03:20:34.265Z,99.65
2022-07-31T03:21:34.351Z,99.65
2022-07-31T03:22:34.251Z,99.85
2022-07-31T03:23:34.292Z,99.65
2022-07-31T03:24:34.236Z,99.85
2022-07-31T03:25:34.245Z,99.99
2022-07-31T03:26:34.216Z,99.69
2022-07-31T03:27:34.214Z,99.69
2022-07-31T03:28:34.238Z,99.80
2022-07-31T03:29:39.085Z,99.90
2022-07-31T03:30:35.211Z,99.80
2022-07-31T03:31:34.187Z,99.69
2022-07-31T03:32:34.187Z,99.99
2022-07-31T03:33:34.241Z,99.99
2022-07-31T03:34:34.185Z,99.99
2022-07-31T03:35:34.146Z,99.99
2022-07-31T03:36:35.128Z,99.99
2022-07-31T03:37:35.140Z,99.99
2022-07-31T03:38:41.708Z,99.99
2022-07-31T03:39:35.104Z,99.99
2022-07-31T03:40:34.123Z,99.99
2022-07-31T03:41:34.116Z,99.99
2022-07-31T03:42:34.111Z,99.99
2022-07-31T03:43:47.584Z,99.99
2022-07-31T03:44:35.077Z,99.99
2022-07-31T03:45:34.061Z,99.99
2022-07-31T04:01:57.731Z,99.99
2022-07-31T04:02:40.718Z,99.99
2022-07-31T04:03:39.613Z,99.99
2022-07-31T04:04:39.598Z,99.99
2022-07-31T04:05:40.712Z,99.99
2022-07-31T04:06:40.718Z,99.99
2022-07-31T04:07:40.717Z,99.99
2022-07-31T04:08:40.707Z,99.99
2022-07-31T04:09:40.690Z,99.99
2022-07-31T04:10:40.674Z,99.99
2022-07-31T04:11:40.661Z,99.99
2022-07-31T04:12:40.651Z,99.99
2022-07-31T04:13:40.680Z,99.99
2022-07-31T04:14:40.650Z,99.99
2022-07-31T04:15:40.634Z,99.99
2022-07-31T04:16:40.624Z,99.99
2022-07-31T04:17:40.647Z,99.99
2022-07-31T04:18:40.607Z,99.99
2022-07-31T04:19:40.634Z,99.99
2022-07-31T04:20:40.597Z,99.99
2022-07-31T04:21:40.605Z,99.99
2022-07-31T04:22:40.591Z,99.99
2022-07-31T04:23:40.578Z,99.99
2022-07-31T04:24:41.599Z,99.99
2022-07-31T04:25:40.559Z,99.99
2022-07-31T04:26:40.551Z,99.99
2022-07-31T04:27:48.342Z,99.99
2022-07-31T04:28:41.524Z,99.99
2022-07-31T04:29:40.529Z,99.99
2022-07-31T04:30:40.549Z,99.99
2022-07-31T04:31:40.515Z,99.99
2022-07-31T04:32:40.545Z,99.99
2022-07-31T04:33:46.456Z,99.99
2022-07-31T04:34:41.503Z,99.99
2022-07-31T04:35:40.495Z,99.99
2022-07-31T04:36:40.477Z,99.99
2022-07-31T04:37:40.487Z,99.99
2022-07-31T04:38:41.458Z,99.99
2022-07-31T04:39:40.464Z,99.99
2022-07-31T04:40:40.459Z,99.99
2022-07-31T04:41:40.435Z,99.99
2022-07-31T04:42:40.443Z,99.99
2022-07-31T04:43:41.417Z,99.99
2022-07-31T04:44:40.409Z,99.99
2022-07-31T04:45:40.435Z,99.40
2022-07-31T04:46:40.399Z,99.25
2022-07-31T04:47:40.389Z,98.60
2022-07-31T04:48:41.280Z,97.74
2022-07-31T04:49:40.379Z,96.78
2022-07-31T04:50:40.387Z,95.83
2022-07-31T04:51:40.358Z,94.98
2022-07-31T04:52:40.350Z,93.72
2022-07-31T04:53:40.372Z,93.21
2022-07-31T04:54:40.333Z,92.50
2022-07-31T04:55:40.385Z,93.12
2022-07-31T04:56:40.318Z,92.26
2022-07-31T04:57:40.322Z,91.96
2022-07-31T04:58:40.303Z,91.55
2022-07-31T04:59:59.265Z,90.91
2022-07-31T05:00:41.315Z,90.56
2022-07-31T05:01:40.334Z,89.41
2022-07-31T05:02:40.285Z,88.96
2022-07-31T05:03:40.293Z,87.62
2022-07-31T05:04:40.308Z,87.02
2022-07-31T05:05:40.269Z,84.94
2022-07-31T05:06:40.251Z,83.79
2022-07-31T05:07:40.248Z,82.98
2022-07-31T05:08:40.230Z,82.24
2022-07-31T05:09:40.234Z,82.81
2022-07-31T05:10:40.223Z,81.16
2022-07-31T05:11:40.205Z,79.82
2022-07-31T05:12:40.207Z,79.48
2022-07-31T05:13:40.224Z,78.74
2022-07-31T05:14:40.187Z,78.17
2022-07-31T05:15:40.178Z,77.36
2022-07-31T05:16:40.167Z,78.74
2022-07-31T05:17:40.162Z,79.14
2022-07-31T05:18:40.177Z,79.24
2022-07-31T05:19:40.151Z,78.77
2022-07-31T05:20:40.146Z,77.76
2022-07-31T05:21:46.945Z,77.53
2022-07-31T05:22:41.158Z,76.39
2022-07-31T05:23:40.121Z,75.56
2022-07-31T05:24:40.111Z,75.09
2022-07-31T05:25:40.113Z,74.05
2022-07-31T05:26:40.115Z,73.88
2022-07-31T05:27:41.385Z,74.52
2022-07-31T05:28:40.076Z,74.62
2022-07-31T05:29:40.068Z,77.20
2022-07-31T05:30:40.063Z,79.92
2022-07-31T05:31:40.058Z,81.32
2022-07-31T05:32:41.067Z,79.50
2022-07-31T05:33:40.070Z,77.23
2022-07-31T05:34:40.058Z,77.47
2022-07-31T05:35:40.043Z,78.10
2022-07-31T05:36:40.029Z,77.56
2022-07-31T05:37:40.054Z,76.59
2022-07-31T05:38:40.028Z,75.42
2022-07-31T05:39:39.997Z,74.25
2022-07-31T05:40:40.039Z,72.35
2022-07-31T05:41:39.980Z,69.39
2022-07-31T05:42:39.991Z,71.51
2022-07-31T05:43:39.969Z,72.08
2022-07-31T05:44:40.010Z,69.69
2022-07-31T05:45:39.985Z,67.60
2022-07-31T05:46:39.964Z,65.36
2022-07-31T05:47:41.088Z,65.72
2022-07-31T05:48:39.933Z,68.33
2022-07-31T05:49:39.950Z,69.76
2022-07-31T05:50:39.923Z,68.93
2022-07-31T05:51:39.915Z,68.00
2022-07-31T05:52:39.902Z,70.03
2022-07-31T05:53:39.902Z,72.25
2022-07-31T05:54:39.889Z,70.98
2022-07-31T05:55:39.902Z,69.69
2022-07-31T05:56:39.884Z,69.62
2022-07-31T05:57:39.868Z,70.29
2022-07-31T05:58:39.868Z,70.19
2022-07-31T05:59:39.866Z,72.55
2022-07-31T06:00:39.880Z,72.85
2022-07-31T06:01:39.890Z,74.38
2022-07-31T06:02:39.839Z,76.22
2022-07-31T06:03:52.151Z,76.76
2022-07-31T06:04:40.828Z,76.86
2022-07-31T06:05:39.820Z,77.76
2022-07-31T06:06:39.887Z,79.74
2022-07-31T06:07:39.804Z,80.88
2022-07-31T06:08:39.787Z,80.74
2022-07-31T06:09:39.778Z,80.85
2022-07-31T06:10:39.788Z,81.23
2022-07-31T06:11:39.808Z,83.63
2022-07-31T06:12:39.761Z,82.26
2022-07-31T06:13:39.754Z,83.41
2022-07-31T06:14:39.737Z,84.25
2022-07-31T06:15:39.929Z,84.41
2022-07-31T06:16:40.753Z,83.17
2022-07-31T06:17:43.794Z,82.70
2022-07-31T06:18:39.716Z,84.05
2022-07-31T06:19:39.700Z,84.51
2022-07-31T06:20:39.705Z,82.97
2022-07-31T06:21:39.687Z,83.37
2022-07-31T06:22:39.706Z,82.06
2022-07-31T06:23:39.691Z,82.37
2022-07-31T06:24:42.533Z,82.51
2022-07-31T06:25:39.650Z,83.91
2022-07-31T06:26:39.667Z,84.11
2022-07-31T06:27:39.635Z,83.61
2022-07-31T06:28:47.476Z,84.81
2022-07-31T06:29:42.232Z,83.77
2022-07-31T06:30:39.624Z,84.27
2022-07-31T06:31:39.635Z,83.77
2022-07-31T06:32:39.603Z,83.27
2022-07-31T06:33:39.588Z,83.33
2022-07-31T06:34:39.573Z,83.33
2022-07-31T06:35:39.582Z,83.07
2022-07-31T06:36:39.596Z,84.89
2022-07-31T06:37:39.578Z,85.50
2022-07-31T06:38:39.545Z,86.00
2022-07-31T06:39:55.381Z,85.74
2022-07-31T06:40:40.540Z,86.74
2022-07-31T06:41:39.546Z,87.15
2022-07-31T06:42:39.522Z,87.35
2022-07-31T06:43:39.526Z,86.94
2022-07-31T06:44:46.011Z,86.20
2022-07-31T06:45:50.825Z,86.66
2022-07-31T06:46:49.129Z,85.92
2022-07-31T06:47:40.483Z,84.67
2022-07-31T06:48:39.483Z,83.97
2022-07-31T06:49:39.492Z,83.77
2022-07-31T06:50:39.459Z,84.13
2022-07-31T06:51:39.471Z,83.43
2022-07-31T06:52:39.458Z,82.89
2022-07-31T06:53:39.436Z,81.82
2022-07-31T06:54:39.442Z,82.76
2022-07-31T06:55:44.083Z,84.17
2022-07-31T06:56:40.468Z,84.07
2022-07-31T06:57:39.407Z,83.03
2022-07-31T06:58:39.400Z,81.93
2022-07-31T06:59:40.811Z,83.87
2022-07-31T07:00:39.407Z,83.87
2022-07-31T07:01:39.487Z,84.37
2022-07-31T07:02:39.377Z,84.53
2022-07-31T07:03:39.369Z,83.95
2022-07-31T07:05:04.342Z,82.21
2022-07-31T07:05:45.097Z,81.91
2022-07-31T07:06:40.384Z,80.71
2022-07-31T07:07:39.334Z,81.35
2022-07-31T07:08:39.324Z,82.45
2022-07-31T07:09:39.361Z,83.21
2022-07-31T07:10:39.308Z,81.30
2022-07-31T07:11:39.301Z,81.71
2022-07-31T07:12:39.296Z,81.81
2022-07-31T07:13:45.695Z,81.77
2022-07-31T07:14:40.299Z,82.01
2022-07-31T07:15:39.281Z,82.01
2022-07-31T07:16:39.270Z,81.21
2022-07-31T07:17:39.264Z,80.09
2022-07-31T07:18:39.339Z,78.92
2022-07-31T07:19:39.244Z,77.92
2022-07-31T07:20:39.252Z,77.14
2022-07-31T07:21:39.239Z,77.68
2022-07-31T07:22:39.221Z,78.12
2022-07-31T07:23:39.238Z,78.28
2022-07-31T07:24:39.218Z,77.21
2022-07-31T07:25:39.196Z,75.61
2022-07-31T07:26:39.231Z,75.89
2022-07-31T07:27:39.191Z,77.38
2022-07-31T07:28:39.184Z,76.21
2022-07-31T07:29:39.196Z,74.18
2022-07-31T07:30:39.169Z,73.94
2022-07-31T07:31:39.198Z,73.94
2022-07-31T07:32:39.144Z,72.75
2022-07-31T07:33:40.513Z,75.18
2022-07-31T07:34:39.159Z,76.18
2022-07-31T07:35:39.133Z,75.25
2022-07-31T07:36:39.153Z,75.91
2022-07-31T07:37:39.317Z,74.64
2022-07-31T07:38:39.134Z,73.31
2022-07-31T07:39:39.107Z,72.08
2022-07-31T07:40:39.127Z,71.65
2022-07-31T07:41:39.078Z,71.12
2022-07-31T07:42:39.084Z,71.25
2022-07-31T07:43:39.098Z,72.34
2022-07-31T07:44:39.064Z,70.95
2022-07-31T07:45:40.079Z,68.17
2022-07-31T07:46:39.073Z,66.28
2022-07-31T07:48:06.133Z,66.61
2022-07-31T07:48:40.057Z,66.58
2022-07-31T07:49:39.043Z,66.22
2022-07-31T07:50:39.016Z,65.56
2022-07-31T07:51:59.633Z,64.44
2022-07-31T07:52:43.884Z,62.93
2022-07-31T07:53:39.994Z,62.63
2022-07-31T07:54:39.009Z,63.45
2022-07-31T07:55:38.984Z,63.42
2022-07-31T07:56:39.015Z,62.96
2022-07-31T07:57:39.011Z,63.58
2022-07-31T07:58:38.982Z,66.61
2022-07-31T07:59:38.967Z,69.59
2022-07-31T08:00:38.992Z,69.06
2022-07-31T08:01:39.008Z,69.06
2022-07-31T08:02:38.961Z,69.96
2022-07-31T08:03:48.520Z,69.76
2022-07-31T08:04:39.939Z,71.15
2022-07-31T08:05:38.962Z,69.66
2022-07-31T08:06:38.901Z,70.68
2022-07-31T08:07:42.703Z,71.81
2022-07-31T08:08:38.908Z,72.05
2022-07-31T08:09:38.901Z,68.70
2022-07-31T08:10:38.921Z,69.59
2022-07-31T08:11:38.891Z,69.73
2022-07-31T08:12:38.866Z,70.95
2022-07-31T08:13:40.857Z,68.63
2022-07-31T08:15:11.826Z,66.71
2022-07-31T08:15:38.974Z,62.79
2022-07-31T08:16:39.877Z,62.33
2022-07-31T08:17:38.896Z,64.37
2022-07-31T08:18:38.888Z,65.30
2022-07-31T08:19:38.814Z,65.39
2022-07-31T08:20:38.844Z,64.57
2022-07-31T08:21:38.800Z,64.67
2022-07-31T08:22:38.818Z,61.62
2022-07-31T08:23:38.818Z,62.44
2022-07-31T08:24:38.848Z,61.22
2022-07-31T08:25:38.812Z,60.60
2022-07-31T08:26:38.813Z,59.48
2022-07-31T08:27:40.363Z,59.22
2022-07-31T08:28:38.775Z,60.59
2022-07-31T08:29:38.787Z,63.34
2022-07-31T08:30:38.765Z,65.00
2022-07-31T08:31:38.763Z,63.68
2022-07-31T08:32:39.478Z,62.69
2022-07-31T08:33:38.747Z,62.10
2022-07-31T08:34:41.828Z,63.67
2022-07-31T08:35:39.719Z,64.93
2022-07-31T08:36:39.727Z,64.31
2022-07-31T08:37:57.574Z,62.16
2022-07-31T08:38:39.711Z,60.52
2022-07-31T08:39:38.724Z,59.47
2022-07-31T08:40:43.378Z,58.89
2022-07-31T08:41:39.698Z,57.59
2022-07-31T08:42:38.655Z,57.06
2022-07-31T08:44:02.511Z,56.18
2022-07-31T08:44:39.670Z,56.73
2022-07-31T08:45:40.380Z,57.22
2022-07-31T08:46:39.663Z,57.61
2022-07-31T08:47:38.652Z,57.17
2022-07-31T08:48:38.637Z,56.87
2022-07-31T08:49:38.688Z,55.49
2022-07-31T08:50:38.669Z,55.14
2022-07-31T08:51:50.588Z,54.17
2022-07-31T08:52:39.610Z,52.06
2022-07-31T08:53:38.608Z,50.81
2022-07-31T08:54:38.590Z,51.76
2022-07-31T08:55:56.068Z,50.39
2022-07-31T08:56:39.605Z,52.80
2022-07-31T08:57:38.618Z,53.19
2022-07-31T08:58:39.894Z,53.19
2022-07-31T08:59:39.566Z,52.97
2022-07-31T09:00:38.588Z,53.96
2022-07-31T09:01:38.612Z,55.53
2022-07-31T09:02:38.539Z,54.11
2022-07-31T09:03:38.566Z,56.76
2022-07-31T09:04:39.473Z,57.74
2022-07-31T09:05:42.325Z,57.71
2022-07-31T09:06:38.566Z,58.28
2022-07-31T09:07:38.528Z,57.62
2022-07-31T09:08:38.514Z,56.51
2022-07-31T09:09:51.750Z,56.61
2022-07-31T09:10:39.481Z,57.73
2022-07-31T09:11:38.482Z,56.91
2022-07-31T09:12:38.551Z,57.60
2022-07-31T09:13:38.441Z,57.26
2022-07-31T09:14:38.444Z,58.47
2022-07-31T09:15:38.461Z,58.45
2022-07-31T09:16:38.449Z,58.61
2022-07-31T09:17:38.434Z,57.10
2022-07-31T09:18:38.431Z,57.07
2022-07-31T09:19:53.973Z,57.35
2022-07-31T09:20:39.429Z,59.76
2022-07-31T09:21:38.413Z,57.16
2022-07-31T09:22:38.390Z,57.01
2022-07-31T09:23:38.464Z,57.40
2022-07-31T09:24:39.835Z,55.92
2022-07-31T09:25:38.373Z,56.41
2022-07-31T09:26:38.377Z,55.62
2022-07-31T09:27:38.373Z,56.02
2022-07-31T09:28:38.383Z,55.52
2022-07-31T09:29:38.398Z,55.97
2022-07-31T09:30:55.695Z,57.31
2022-07-31T09:31:39.339Z,59.86
2022-07-31T09:32:38.328Z,56.74
2022-07-31T09:33:43.661Z,56.31
2022-07-31T09:34:40.355Z,56.75
2022-07-31T09:35:38.350Z,55.51
2022-07-31T09:36:38.340Z,53.99
2022-07-31T09:37:38.339Z,52.26
2022-07-31T09:38:38.314Z,51.57
2022-07-31T09:39:38.312Z,49.24
2022-07-31T09:40:51.547Z,49.51
2022-07-31T09:41:56.623Z,48.33
2022-07-31T09:42:39.298Z,48.72
2022-07-31T09:43:52.066Z,49.09
2022-07-31T09:44:39.281Z,49.21
2022-07-31T09:45:48.086Z,49.36
2022-07-31T09:46:39.307Z,49.24
2022-07-31T09:47:38.215Z,48.74
2022-07-31T09:48:38.243Z,48.08
2022-07-31T09:49:39.300Z,49.55
2022-07-31T09:50:38.328Z,47.49
2022-07-31T09:51:38.217Z,48.82
2022-07-31T09:52:38.208Z,49.58
2022-07-31T09:53:43.022Z,51.67
2022-07-31T09:54:40.182Z,50.19
2022-07-31T09:55:38.171Z,49.92
2022-07-31T09:56:38.222Z,51.87
2022-07-31T09:57:38.198Z,53.30
2022-07-31T09:58:38.162Z,53.30
2022-07-31T09:59:38.145Z,52.93
2022-07-31T10:00:38.215Z,54.86
2022-07-31T10:01:38.137Z,55.08
2022-07-31T10:02:38.186Z,56.27
2022-07-31T10:03:38.130Z,55.58
2022-07-31T10:04:38.157Z,54.06
2022-07-31T10:05:38.156Z,54.27
2022-07-31T10:06:38.107Z,55.52
2022-07-31T10:07:38.129Z,53.12
2022-07-31T10:08:38.107Z,53.67
2022-07-31T10:09:38.134Z,52.39
2022-07-31T10:10:38.073Z,52.31
2022-07-31T10:11:38.067Z,51.87
2022-07-31T10:12:38.064Z,51.23
2022-07-31T10:13:40.687Z,51.79
2022-07-31T10:14:38.039Z,51.23
2022-07-31T10:15:38.081Z,49.87
2022-07-31T10:16:38.041Z,49.16
2022-07-31T10:17:38.018Z,47.64
2022-07-31T10:18:41.567Z,48.52
2022-07-31T10:19:39.010Z,49.01
2022-07-31T10:20:37.997Z,47.71
2022-07-31T10:21:37.990Z,48.82
2022-07-31T10:22:37.996Z,49.63
2022-07-31T10:23:38.001Z,49.01
2022-07-31T10:24:37.984Z,49.33
2022-07-31T10:25:37.994Z,49.16
2022-07-31T10:26:59.801Z,49.77
2022-07-31T10:27:39.955Z,49.69
2022-07-31T10:28:37.976Z,50.59
2022-07-31T10:29:37.947Z,51.07
2022-07-31T10:30:37.975Z,49.50
2022-07-31T10:31:37.940Z,49.48
2022-07-31T10:32:37.915Z,49.97
2022-07-31T10:33:45.365Z,49.38
2022-07-31T10:34:39.959Z,49.69
2022-07-31T10:35:37.913Z,49.92
2022-07-31T10:36:37.883Z,51.50
2022-07-31T10:37:37.875Z,51.62
2022-07-31T10:38:38.503Z,50.73
2022-07-31T10:39:38.854Z,51.05
2022-07-31T10:40:37.893Z,50.95
2022-07-31T10:41:37.936Z,51.84
2022-07-31T10:42:37.845Z,51.52
2022-07-31T10:43:37.843Z,51.13
2022-07-31T10:44:38.888Z,50.61
2022-07-31T10:45:38.828Z,50.31
2022-07-31T10:46:37.898Z,50.61
2022-07-31T10:47:37.859Z,50.02
2022-07-31T10:48:37.821Z,49.43
2022-07-31T10:49:37.842Z,49.82
2022-07-31T10:50:38.497Z,49.52
2022-07-31T10:51:37.778Z,49.20
2022-07-31T10:52:37.864Z,49.69
2022-07-31T10:53:51.552Z,50.16
2022-07-31T10:54:38.802Z,50.16
2022-07-31T10:55:37.783Z,49.99
2022-07-31T10:56:37.835Z,50.59
2022-07-31T10:57:55.406Z,51.59
2022-07-31T10:58:38.790Z,51.13
2022-07-31T10:59:41.696Z,51.92
2022-07-31T11:00:38.748Z,52.73
2022-07-31T11:01:37.743Z,51.72
2022-07-31T11:02:37.763Z,51.62
2022-07-31T11:03:37.746Z,49.94
2022-07-31T11:04:37.707Z,49.84
2022-07-31T11:06:02.322Z,49.40
2022-07-31T11:06:38.672Z,51.20
2022-07-31T11:07:37.735Z,51.25
2022-07-31T11:08:37.757Z,50.02
2022-07-31T11:09:50.626Z,49.52
2022-07-31T11:10:38.725Z,47.85
2022-07-31T11:11:37.641Z,48.81
2022-07-31T11:12:37.651Z,48.12
2022-07-31T11:13:37.654Z,47.80
2022-07-31T11:14:37.655Z,47.82
2022-07-31T11:15:37.671Z,47.80
2022-07-31T11:16:37.647Z,47.58
2022-07-31T11:18:17.423Z,46.81
2022-07-31T11:18:38.651Z,47.60
2022-07-31T11:19:41.242Z,47.31
2022-07-31T11:20:37.723Z,47.50
2022-07-31T11:21:39.357Z,46.62
2022-07-31T11:22:38.587Z,47.80
2022-07-31T11:23:37.567Z,48.74
2022-07-31T11:24:37.679Z,47.45
2022-07-31T11:25:37.621Z,47.85
2022-07-31T11:26:42.129Z,47.65
2022-07-31T11:27:37.535Z,48.04
2022-07-31T11:28:37.557Z,49.15
2022-07-31T11:29:58.838Z,48.86
2022-07-31T11:30:38.591Z,49.15
2022-07-31T11:31:37.536Z,49.08
2022-07-31T11:32:37.509Z,49.37
2022-07-31T11:33:42.852Z,49.57
2022-07-31T11:34:38.606Z,49.37
2022-07-31T11:35:37.501Z,49.67
2022-07-31T11:36:37.495Z,49.55
2022-07-31T11:37:56.875Z,50.07
2022-07-31T11:38:38.548Z,49.55
2022-07-31T11:39:37.459Z,49.96
2022-07-31T11:42:36.357Z,52.95
2022-07-31T11:43:35.059Z,52.53
2022-07-31T11:45:11.073Z,51.82
2022-07-31T11:45:36.208Z,51.23
2022-07-31T11:48:09.298Z,50.24
2022-07-31T11:48:11.853Z,49.15
2022-07-31T11:49:08.104Z,49.35
2022-07-31T11:49:47.842Z,49.52
2022-07-31T11:50:37.747Z,49.62
2022-07-31T11:52:08.017Z,49.03
2022-07-31T11:52:37.956Z,49.35
2022-07-31T11:54:08.039Z,49.82
2022-07-31T11:54:36.092Z,49.72
2022-07-31T11:56:08.003Z,49.40
2022-07-31T11:56:36.102Z,48.81
2022-07-31T11:57:51.003Z,48.22
2022-07-31T11:59:09.015Z,48.81
2022-07-31T11:59:46.232Z,47.63
2022-07-31T12:00:37.059Z,48.41
2022-07-31T12:01:36.930Z,48.71
2022-07-31T12:02:36.104Z,48.00
2022-07-31T12:03:36.016Z,47.90
2022-07-31T12:04:36.046Z,47.50
2022-07-31T12:05:39.200Z,48.59
2022-07-31T12:06:36.520Z,47.80
2022-07-31T12:07:36.075Z,47.48
2022-07-31T12:08:36.039Z,47.48
2022-07-31T12:10:01.289Z,47.78
2022-07-31T12:10:37.024Z,47.26
2022-07-31T12:11:35.966Z,46.57
2022-07-31T12:12:35.956Z,47.06
2022-07-31T12:13:35.951Z,47.06
2022-07-31T12:14:36.011Z,46.69
2022-07-31T12:15:35.998Z,47.16
2022-07-31T12:16:35.931Z,46.77
2022-07-31T12:17:35.904Z,45.96
2022-07-31T12:18:35.924Z,46.55
2022-07-31T12:19:37.554Z,46.65
2022-07-31T12:20:37.015Z,46.06
2022-07-31T12:21:35.907Z,46.53
2022-07-31T12:22:35.949Z,46.75
2022-07-31T12:23:40.506Z,46.67
2022-07-31T12:24:36.873Z,47.66
2022-07-31T12:25:35.916Z,47.26
2022-07-31T12:26:35.876Z,46.99
2022-07-31T12:27:35.854Z,46.79
2022-07-31T12:28:35.840Z,46.87
2022-07-31T12:29:35.961Z,46.67
2022-07-31T12:30:36.872Z,47.06
2022-07-31T12:31:35.838Z,46.94
2022-07-31T12:32:35.941Z,47.04
2022-07-31T12:33:35.789Z,45.86
2022-07-31T12:34:35.830Z,46.37
2022-07-31T12:35:54.939Z,46.32
2022-07-31T12:36:36.861Z,47.50
2022-07-31T12:37:35.769Z,46.81
2022-07-31T12:38:45.406Z,47.31
2022-07-31T12:39:53.664Z,47.38
2022-07-31T12:40:36.779Z,46.57
2022-07-31T12:41:35.735Z,46.37
2022-07-31T12:42:41.172Z,46.35
2022-07-31T12:43:37.727Z,46.45
2022-07-31T12:44:35.834Z,45.62
2022-07-31T12:45:35.713Z,45.50
2022-07-31T12:46:35.725Z,44.40
2022-07-31T12:47:36.358Z,43.80
2022-07-31T12:48:40.091Z,43.96
2022-07-31T12:49:37.744Z,43.94
2022-07-31T12:50:35.748Z,42.84
2022-07-31T12:51:45.370Z,42.96
2022-07-31T12:52:36.667Z,44.04
2022-07-31T12:53:35.675Z,43.86
2022-07-31T12:54:39.428Z,43.76
2022-07-31T12:55:36.674Z,44.65
2022-07-31T12:56:35.634Z,44.27
2022-07-31T12:57:35.621Z,44.67
2022-07-31T12:58:36.636Z,44.98
2022-07-31T12:59:35.633Z,45.18
2022-07-31T13:00:39.851Z,44.49
2022-07-31T13:01:36.859Z,44.98
2022-07-31T13:02:35.599Z,44.98
2022-07-31T13:03:45.577Z,45.60
2022-07-31T13:04:36.583Z,45.50
2022-07-31T13:05:35.574Z,45.18
2022-07-31T13:06:35.589Z,44.47
2022-07-31T13:07:35.567Z,44.79
2022-07-31T13:08:35.602Z,44.89
2022-07-31T13:09:35.580Z,44.89
2022-07-31T13:10:35.587Z,44.89
2022-07-31T13:11:46.665Z,45.01
2022-07-31T13:12:36.556Z,45.23
2022-07-31T13:13:35.570Z,45.03
2022-07-31T13:14:35.686Z,45.20
2022-07-31T13:15:35.543Z,46.60
2022-07-31T13:16:35.522Z,44.91
2022-07-31T13:17:35.526Z,45.10
2022-07-31T13:18:35.700Z,44.91
2022-07-31T13:19:35.540Z,44.59
2022-07-31T13:20:35.477Z,46.21
2022-07-31T13:21:47.903Z,45.99
2022-07-31T13:23:07.377Z,45.18
2022-07-31T13:23:35.444Z,44.33
2022-07-31T13:24:35.553Z,44.92
2022-07-31T13:25:35.423Z,44.62
2022-07-31T13:26:35.469Z,43.96